createdAt,value
2023-01-30T00:03:13.690Z,66.40
2023-01-30T00:07:16.486Z,67.30
2023-01-30T00:11:21.635Z,67.10
2023-01-30T00:15:24.960Z,66.60
2023-01-30T00:19:27.751Z,66.50
2023-01-30T00:23:39.655Z,66.30
2023-01-30T00:27:47.625Z,66.30
2023-01-30T00:31:52.616Z,66.20
2023-01-30T00:35:58.465Z,66.10
2023-01-30T00:40:06.278Z,66.20
2023-01-30T00:44:28.904Z,66.20
2023-01-30T00:48:32.424Z,66.30
2023-01-30T00:52:37.517Z,66.40
2023-01-30T00:56:40.299Z,66.40
2023-01-30T01:00:43.964Z,66.40
2023-01-30T01:04:47.029Z,66.50
2023-01-30T01:08:50.009Z,66.50
2023-01-30T01:12:53.611Z,66.60
2023-01-30T01:17:02.264Z,66.60
2023-01-30T01:21:05.536Z,66.70
2023-01-30T01:25:10.580Z,66.70
2023-01-30T01:29:17.030Z,66.60
2023-01-30T01:33:19.825Z,66.70
2023-01-30T01:37:22.641Z,66.80
2023-01-30T01:41:26.195Z,66.80
2023-01-30T01:45:30.102Z,66.80
2023-01-30T01:49:37.509Z,66.90
2023-01-30T01:53:47.459Z,67.10
2023-01-30T01:58:03.620Z,67.20
2023-01-30T02:02:12.967Z,67.50
2023-01-30T02:06:17.536Z,67.30
2023-01-30T02:10:27.673Z,67.30
2023-01-30T02:14:33.369Z,67.40
2023-01-30T02:18:39.648Z,67.20
2023-01-30T02:23:00.988Z,67.10
2023-01-30T02:27:19.551Z,67.20
2023-01-30T02:31:42.495Z,67.30
2023-01-30T02:36:38.139Z,67.40
2023-01-30T02:40:54.678Z,67.60
2023-01-30T02:45:14.521Z,67.60
2023-01-30T02:49:34.089Z,67.60
2023-01-30T02:53:37.927Z,67.70
2023-01-30T02:57:45.188Z,67.90
2023-01-30T03:02:20.718Z,67.90
2023-01-30T03:06:39.313Z,68.10
2023-01-30T03:11:03.266Z,68.10
2023-01-30T03:15:28.800Z,68.40
2023-01-30T03:19:40.681Z,68.70
2023-01-30T03:23:46.888Z,68.50
2023-01-30T03:27:58.811Z,68.50
2023-01-30T03:36:30.664Z,68.40
2023-01-30T03:40:57.931Z,68.30
2023-01-30T03:45:09.221Z,68.30
2023-01-30T03:49:16.986Z,68.60
2023-01-30T03:59:10.367Z,68.60
2023-01-30T04:03:43.368Z,69.00
2023-01-30T04:08:03.336Z,69.00
2023-01-30T04:12:14.670Z,68.90
2023-01-30T04:16:36.544Z,68.90
2023-01-30T04:21:02.463Z,68.80
2023-01-30T04:25:12.720Z,68.80
2023-01-30T04:29:27.313Z,68.80
2023-01-30T04:33:38.798Z,68.90
2023-01-30T04:42:30.847Z,69.10
2023-01-30T04:47:25.505Z,69.00
2023-01-30T04:52:02.500Z,69.20
2023-01-30T04:56:06.521Z,69.30
2023-01-30T05:00:11.485Z,69.20
2023-01-30T05:04:22.491Z,69.30
2023-01-30T05:08:29.299Z,69.20
2023-01-30T05:12:33.868Z,69.30
2023-01-30T05:16:38.551Z,69.20
2023-01-30T05:20:43.343Z,69.20
2023-01-30T05:24:47.942Z,69.20
2023-01-30T05:28:55.940Z,69.40
2023-01-30T05:32:59.677Z,69.50
2023-01-30T05:37:07.590Z,69.50
2023-01-30T05:41:16.278Z,69.80
2023-01-30T05:45:20.185Z,69.80
2023-01-30T05:49:24.361Z,69.70
2023-01-30T05:53:31.591Z,69.80
2023-01-30T05:57:35.057Z,70.10
2023-01-30T06:01:39.427Z,70.20
2023-01-30T06:05:47.607Z,70.20
2023-01-30T06:10:52.385Z,70.30
2023-01-30T06:14:59.221Z,70.70
2023-01-30T06:19:02.872Z,70.80
2023-01-30T06:23:07.531Z,70.90
2023-01-30T06:27:10.936Z,70.90
2023-01-30T06:31:18.533Z,70.80
2023-01-30T06:35:25.226Z,70.80
2023-01-30T06:39:29.556Z,70.70
2023-01-30T06:43:33.059Z,70.70
2023-01-30T06:47:54.403Z,70.60
2023-01-30T06:52:09.347Z,70.60
2023-01-30T07:58:16.325Z,70.30
2023-01-30T11:16:11.806Z,58.30
2023-01-30T11:20:21.317Z,57.20
2023-01-30T11:24:31.355Z,56.50
2023-01-30T11:28:39.845Z,55.50
2023-01-30T11:32:49.349Z,55.00
2023-01-30T11:36:52.858Z,54.90
2023-01-30T11:41:10.121Z,55.70
2023-01-30T11:45:18.461Z,55.50
2023-01-30T11:49:44.850Z,55.30
2023-01-30T11:53:56.702Z,55.30
2023-01-30T11:58:01.325Z,55.00
2023-01-30T12:02:26.500Z,54.60
2023-01-30T12:06:38.863Z,54.20
2023-01-30T12:10:44.694Z,53.80
2023-01-30T12:14:50.553Z,53.60
2023-01-30T12:19:06.366Z,53.80
2023-01-30T12:23:19.098Z,53.20
2023-01-30T12:27:42.017Z,53.60
2023-01-30T12:32:06.575Z,53.00
2023-01-30T12:36:17.387Z,53.40
2023-01-30T12:40:23.796Z,53.20
2023-01-30T12:44:36.751Z,53.40
2023-01-30T13:09:37.709Z,53.50
2023-01-30T13:21:35.719Z,54.00
2023-01-30T13:26:16.873Z,54.20
2023-01-30T13:57:38.081Z,56.30
2023-01-30T14:42:39.208Z,57.10
2023-01-30T14:46:54.414Z,57.30
2023-01-30T14:51:16.574Z,57.50
2023-01-30T14:55:26.992Z,57.90
2023-01-30T14:59:38.395Z,57.70
2023-01-30T15:03:46.715Z,57.70
2023-01-30T15:07:54.134Z,57.70
2023-01-30T15:12:28.633Z,57.80
2023-01-30T15:16:41.352Z,57.80
2023-01-30T15:21:15.508Z,57.70
2023-01-30T15:25:55.666Z,57.70
2023-01-30T15:30:17.216Z,57.50
2023-01-30T15:34:20.937Z,57.30
2023-01-30T15:38:34.978Z,57.40
2023-01-30T15:42:38.555Z,57.50
2023-01-30T15:46:54.612Z,57.40
2023-01-30T15:51:00.164Z,57.30
2023-01-30T15:55:03.410Z,57.30
2023-01-30T15:59:07.242Z,57.20
2023-01-30T16:03:14.698Z,57.40
2023-01-30T16:07:25.800Z,57.70
2023-01-30T16:11:37.756Z,57.70
2023-01-30T16:15:58.929Z,58.00
2023-01-30T16:20:03.045Z,58.20
2023-01-30T16:24:17.039Z,58.40
2023-01-30T16:28:24.518Z,58.70
2023-01-30T16:32:30.660Z,59.00
2023-01-30T16:36:40.020Z,59.30
2023-01-30T16:40:46.259Z,59.80
2023-01-30T16:44:48.945Z,60.30
2023-01-30T16:48:51.907Z,60.50
2023-01-30T16:52:56.179Z,60.90
2023-01-30T16:57:02.061Z,60.90
2023-01-30T17:01:07.725Z,61.00
2023-01-30T17:05:21.647Z,61.20
2023-01-30T17:09:35.798Z,61.80
2023-01-30T17:13:43.932Z,62.10
2023-01-30T17:17:47.366Z,62.50
2023-01-30T17:21:51.733Z,62.50
2023-01-30T17:25:54.527Z,62.50
2023-01-30T17:29:57.400Z,62.40
2023-01-30T17:34:00.477Z,62.60
2023-01-30T17:38:05.989Z,62.70
2023-01-30T17:42:13.337Z,62.70
2023-01-30T17:46:16.812Z,62.80
2023-01-30T17:50:19.970Z,62.90
2023-01-30T17:54:24.896Z,63.20
2023-01-30T17:58:27.723Z,63.60
2023-01-30T18:02:32.582Z,63.50
2023-01-30T18:06:36.866Z,63.40
2023-01-30T18:10:39.808Z,63.30
2023-01-30T18:14:43.053Z,63.40
2023-01-30T18:18:45.946Z,63.50
2023-01-30T18:22:49.297Z,63.60
2023-01-30T18:26:52.100Z,63.60
2023-01-30T18:30:55.016Z,63.80
2023-01-30T18:34:57.955Z,63.80
2023-01-30T18:39:00.970Z,64.10
2023-01-30T18:43:06.949Z,64.10
2023-01-30T18:47:09.897Z,64.00
2023-01-30T18:51:15.626Z,64.30
2023-01-30T18:55:18.695Z,64.30
2023-01-30T18:59:21.591Z,64.30
2023-01-30T19:03:25.421Z,64.60
2023-01-30T19:07:28.333Z,64.60
2023-01-30T19:11:50.381Z,64.50
2023-01-30T19:15:58.575Z,64.30
2023-01-30T19:20:02.510Z,64.30
2023-01-30T19:24:08.791Z,64.20
2023-01-30T19:28:11.672Z,64.10
2023-01-30T19:32:14.877Z,64.00
2023-01-30T19:36:20.502Z,63.90
2023-01-30T19:40:23.348Z,63.90
2023-01-30T19:44:26.152Z,63.90
2023-01-30T19:48:29.374Z,63.80
2023-01-30T19:52:32.207Z,63.70
2023-01-30T19:56:36.778Z,63.60
2023-01-30T20:00:39.620Z,63.60
2023-01-30T20:04:42.318Z,63.40
2023-01-30T20:08:46.913Z,63.30
2023-01-30T20:12:50.062Z,63.20
2023-01-30T20:16:52.912Z,63.10
2023-01-30T20:20:55.901Z,63.10
2023-01-30T20:24:59.011Z,63.00
2023-01-30T20:29:02.742Z,62.90
2023-01-30T20:33:06.225Z,62.80
2023-01-30T20:37:09.186Z,62.80
2023-01-30T20:41:17.831Z,62.80
2023-01-30T20:45:20.658Z,62.70
2023-01-30T20:49:23.763Z,62.80
2023-01-30T20:53:26.857Z,62.80
2023-01-30T20:57:29.919Z,62.90
2023-01-30T21:01:33.929Z,63.00
2023-01-30T21:05:37.253Z,63.10
2023-01-30T21:09:40.345Z,63.30
2023-01-30T21:13:43.325Z,63.40
2023-01-30T21:17:46.783Z,63.30
2023-01-30T21:21:53.480Z,63.30
2023-01-30T21:25:56.939Z,63.30
2023-01-30T21:30:00.627Z,63.50
2023-01-30T21:34:03.568Z,63.80
2023-01-30T21:38:25.073Z,63.80
2023-01-30T21:42:46.382Z,64.00
2023-01-30T21:46:49.671Z,64.00
2023-01-30T21:50:52.392Z,64.00
2023-01-30T21:54:57.152Z,64.30
2023-01-30T21:59:01.504Z,64.30
2023-01-30T22:03:04.485Z,64.30
2023-01-30T22:07:07.403Z,64.40
2023-01-30T22:11:14.601Z,64.50
2023-01-30T22:15:20.750Z,64.60
2023-01-30T22:19:23.800Z,64.70
2023-01-30T22:23:34.920Z,64.70
2023-01-30T22:27:38.462Z,64.80
2023-01-30T22:31:41.717Z,64.60
2023-01-30T22:35:51.520Z,64.60
2023-01-30T22:39:54.482Z,64.60
2023-01-30T22:43:59.492Z,64.50
2023-01-30T22:48:02.543Z,64.40
2023-01-30T22:52:05.318Z,64.30
2023-01-30T22:56:11.153Z,64.30
2023-01-30T23:00:16.210Z,64.30
2023-01-30T23:04:23.719Z,64.40
2023-01-30T23:08:29.362Z,64.30
2023-01-30T23:12:50.766Z,64.20
2023-01-30T23:16:53.612Z,64.10
2023-01-30T23:20:56.537Z,64.00
2023-01-30T23:24:59.654Z,64.00
2023-01-30T23:29:04.328Z,63.90
2023-01-30T23:33:07.279Z,64.00
2023-01-30T23:37:10.106Z,64.00
2023-01-30T23:41:16.029Z,64.10
2023-01-30T23:45:19.198Z,64.10
2023-01-30T23:49:22.332Z,64.00
2023-01-30T23:53:25.111Z,64.10
2023-01-30T23:57:28.019Z,64.10
